Hauptseite
METAR-TAF:

METAR-TAF

Flughäfen :

Indiana County Airport (Jimmy Stewart Field)

Indiana, Pennsylvania, Vereinigte Staaten

Breite: 40-38N, Länge: 079-06W, Höhe: 429 m

Beobachtung

Neuester Wetterbericht von vor 17 Minuten, um 01:35 UTC
Wind 12 kt aus Nordwest, Böen bis zu 18 kt
Temperatur -4°C
Luftfeuchtigkeit 86%
Luftdruck 1033 hPa
Sichtweite: 3.2 km
Leicht bewölkt in der Höhe von 400 ft
Aufgelockert bewölkt in der Höhe von 1700 ft
Durchbrochene Bewölkung in der Höhe von 2600 ft
feuchter Dunst

METAR: KIDI 120135Z AUTO 32012G18KT 2SM BR FEW004 SCT017 BKN026 M04/M06 A3050 RMK A01

Zeit: 20:52 (01:52 UTC)


TAF: fehlend

Wetterbeobachtungen und Prognosen von mehr als 4000 Flughäfen (METAR und TAF Bericht).

Die verfügbaren Stationen werden durch gelbe und rote Markierungen auf der Karte dargestellt.

Führen Sie die Maus auf sie, um den Namen der Station zu sehen.

Darauf klicken, um die Beobachtung von Wetterbeobachtungen und Prognosen zu sehen.

Um die Karte zu ändern : klicken Sie auf den grünen Tasten mit einem schwarzen Kreuz Zum Vergrößern, auf den grünen Button mit einem Gedankenstrich zu verkleinern, oder auf die grünen Pfeile für benachbarte Karten.


METAR-TAF: